Time;durP1;ratioP1;P1;durP2;ratioP2;P2;SDS_P1;SDS_P2;PMS_P1;PMS_P2;Temp;Humidity;BMP_temperature;BMP_pressure;BME280_temperature;BME280_humidity;BME280_pressure;Samples;Min_cycle;Max_cycle;Signal;HPM_P1;HPM_P2
2021/01/26 00:00:47;;;;;;;13.27;2.63;;;5.90;99.90;;;;;;4948297;28;20228;-86
2021/01/26 00:03:14;;;;;;;13.10;3.33;;;5.90;99.90;;;;;;4949684;29;20236;-86
2021/01/26 00:05:40;;;;;;;11.27;2.90;;;5.80;99.90;;;;;;4949670;28;20213;-89
2021/01/26 00:08:09;;;;;;;10.27;2.60;;;5.70;99.90;;;;;;4951048;29;20206;-89
2021/01/26 00:10:36;;;;;;;18.13;2.77;;;5.70;99.90;;;;;;4953593;28;20215;-89
2021/01/26 00:13:04;;;;;;;11.93;2.27;;;5.70;99.90;;;;;;4966819;28;20211;-85
2021/01/26 00:15:30;;;;;;;15.17;2.70;;;5.70;99.90;;;;;;4968070;28;20221;-82
2021/01/26 00:17:58;;;;;;;17.50;3.47;;;5.70;99.90;;;;;;4970476;28;20852;-88
2021/01/26 00:20:26;;;;;;;19.70;3.57;;;5.70;99.90;;;;;;4961942;28;20213;-87
2021/01/26 00:22:53;;;;;;;16.03;3.63;;;5.70;99.90;;;;;;4951957;29;20268;-88
2021/01/26 00:25:21;;;;;;;13.87;3.47;;;5.70;99.90;;;;;;4952362;29;20201;-89
2021/01/26 00:27:48;;;;;;;14.57;2.93;;;5.70;99.90;;;;;;4951902;28;20271;-88
2021/01/26 00:30:18;;;;;;;19.60;4.10;;;5.70;99.90;;;;;;4950213;29;20322;-86
2021/01/26 00:32:44;;;;;;;14.97;3.13;;;5.80;99.90;;;;;;4947237;29;20205;-88
2021/01/26 00:35:12;;;;;;;17.00;4.07;;;5.80;99.90;;;;;;4946635;28;20209;-85
2021/01/26 00:37:40;;;;;;;13.13;2.30;;;5.90;99.90;;;;;;4946518;29;20216;-86
2021/01/26 00:40:08;;;;;;;14.27;2.60;;;5.90;99.90;;;;;;4947882;29;20205;-88
2021/01/26 00:42:34;;;;;;;16.10;3.20;;;5.80;99.90;;;;;;4949782;28;20246;-90
2021/01/26 00:45:01;;;;;;;19.63;3.97;;;5.70;99.90;;;;;;4951639;29;20216;-83
2021/01/26 00:47:27;;;;;;;11.73;2.60;;;5.60;99.90;;;;;;4949678;28;20217;-88
2021/01/26 00:49:53;;;;;;;13.17;2.03;;;5.50;99.90;;;;;;4950734;29;20205;-88
2021/01/26 00:52:20;;;;;;;13.33;2.43;;;5.50;99.90;;;;;;4952144;29;20201;-89
2021/01/26 00:54:47;;;;;;;17.00;4.57;;;5.60;99.90;;;;;;4967236;28;20221;-89
2021/01/26 00:57:19;;;;;;;12.23;3.07;;;5.60;99.90;;;;;;4970669;28;20192;-90
2021/01/26 00:59:48;;;;;;;13.93;3.93;;;5.60;99.90;;;;;;4956545;28;20205;-87
2021/01/26 01:02:15;;;;;;;27.37;4.17;;;5.60;99.90;;;;;;4959705;28;20229;-87
2021/01/26 01:04:41;;;;;;;15.30;3.77;;;5.60;99.90;;;;;;4968068;28;20204;-86
2021/01/26 01:07:08;;;;;;;13.30;2.87;;;5.60;99.90;;;;;;4962264;28;20265;-82
2021/01/26 01:09:34;;;;;;;17.07;2.80;;;5.60;99.90;;;;;;4948370;29;20213;-88
2021/01/26 01:12:01;;;;;;;11.17;2.27;;;5.70;99.90;;;;;;4963572;28;20223;-88
2021/01/26 01:14:28;;;;;;;10.90;2.53;;;5.70;99.90;;;;;;4973596;28;20216;-88
2021/01/26 01:16:55;;;;;;;9.77;2.20;;;5.60;99.90;;;;;;4951124;28;20217;-90
2021/01/26 01:19:21;;;;;;;7.30;2.30;;;5.60;99.90;;;;;;4954353;29;20201;-89
2021/01/26 01:21:47;;;;;;;15.00;2.47;;;5.60;99.90;;;;;;4955322;29;20240;-89
2021/01/26 01:24:14;;;;;;;16.47;3.97;;;5.60;99.90;;;;;;4955247;29;20525;-88
2021/01/26 01:26:40;;;;;;;17.50;3.03;;;5.60;99.90;;;;;;4955867;28;20245;-88
2021/01/26 01:29:09;;;;;;;22.80;3.03;;;5.70;99.90;;;;;;4952250;29;20209;-82
2021/01/26 01:31:36;;;;;;;12.83;2.30;;;5.70;99.90;;;;;;4948954;29;20208;-89
2021/01/26 01:34:02;;;;;;;19.33;3.50;;;5.70;99.90;;;;;;4949985;28;20213;-90
2021/01/26 01:36:28;;;;;;;23.87;3.07;;;5.80;99.90;;;;;;4953634;28;20256;-90
2021/01/26 01:38:54;;;;;;;20.40;3.13;;;5.90;99.90;;;;;;4954869;29;20257;-87
2021/01/26 01:41:21;;;;;;;30.03;4.63;;;5.90;99.90;;;;;;4955169;28;20248;-88
2021/01/26 01:43:50;;;;;;;14.13;3.70;;;5.90;99.90;;;;;;4954564;29;20213;-90
2021/01/26 01:46:21;;;;;;;14.87;3.20;;;5.90;99.90;;;;;;4954342;29;20233;-88
2021/01/26 01:48:48;;;;;;;21.37;3.97;;;5.90;99.90;;;;;;4955391;28;20640;-89
2021/01/26 01:51:20;;;;;;;9.50;2.53;;;6.00;99.90;;;;;;4954789;29;20610;-89
2021/01/26 01:53:50;;;;;;;13.87;2.70;;;6.00;99.90;;;;;;4954369;29;21017;-84
2021/01/26 01:56:20;;;;;;;16.00;2.60;;;6.00;99.90;;;;;;4954659;29;20328;-88
2021/01/26 01:58:53;;;;;;;7.67;2.37;;;6.00;99.90;;;;;;4953985;28;20213;-90
2021/01/26 02:01:21;;;;;;;8.83;2.63;;;6.00;99.90;;;;;;4953235;29;20198;-86
2021/01/26 02:03:52;;;;;;;11.20;2.93;;;6.00;99.90;;;;;;4954422;29;20217;-86
2021/01/26 02:06:19;;;;;;;11.87;2.77;;;6.00;99.90;;;;;;4955004;28;20597;-89
2021/01/26 02:08:53;;;;;;;15.37;2.97;;;6.00;99.90;;;;;;4953010;29;20264;-87
2021/01/26 02:11:20;;;;;;;12.90;2.40;;;6.10;99.90;;;;;;4959148;28;20201;-89
2021/01/26 02:13:47;;;;;;;14.00;2.50;;;6.10;99.90;;;;;;4972392;28;20200;-88
2021/01/26 02:16:29;;;;;;;13.60;3.17;;;6.10;99.90;;;;;;4956919;28;20292;-81
2021/01/26 02:19:15;;;;;;;13.73;2.97;;;6.20;99.90;;;;;;4953362;29;20208;-88
2021/01/26 02:22:14;;;;;;;11.83;2.53;;;6.20;99.90;;;;;;4954127;29;20226;-89
2021/01/26 02:25:15;;;;;;;9.33;2.97;;;6.20;99.90;;;;;;4953375;28;20210;-89
2021/01/26 02:28:29;;;;;;;17.67;2.60;;;6.20;99.90;;;;;;4953223;29;20198;-88
2021/01/26 02:31:29;;;;;;;12.67;2.50;;;6.20;99.90;;;;;;4953372;29;20946;-89
2021/01/26 02:34:49;;;;;;;14.33;3.57;;;6.20;99.90;;;;;;4951521;29;20185;-84
2021/01/26 02:37:58;;;;;;;13.17;3.00;;;6.20;99.90;;;;;;4949340;29;20209;-88
2021/01/26 02:40:32;;;;;;;12.47;2.73;;;6.20;99.90;;;;;;4952005;28;20305;-90
2021/01/26 02:43:23;;;;;;;19.63;3.80;;;6.20;99.90;;;;;;4953010;29;20781;-89
2021/01/26 02:45:59;;;;;;;18.57;3.23;;;6.10;99.90;;;;;;4954170;28;20213;-88
2021/01/26 02:48:49;;;;;;;16.73;3.17;;;6.20;99.90;;;;;;4952538;29;20705;-89
2021/01/26 02:51:26;;;;;;;13.20;3.23;;;6.20;99.90;;;;;;4952797;28;20219;-82
2021/01/26 02:54:00;;;;;;;20.57;3.83;;;6.20;99.90;;;;;;4953801;29;20260;-84
2021/01/26 02:56:38;;;;;;;12.40;3.50;;;6.30;99.90;;;;;;4952475;28;20272;-89
2021/01/26 02:59:17;;;;;;;14.90;4.10;;;6.30;99.90;;;;;;4952479;29;20193;-84
2021/01/26 03:01:48;;;;;;;19.20;3.30;;;6.20;99.90;;;;;;4952937;29;20640;-87
2021/01/26 03:04:20;;;;;;;19.83;2.80;;;6.20;99.90;;;;;;4951874;28;20205;-88
2021/01/26 03:06:51;;;;;;;14.33;2.70;;;6.10;99.90;;;;;;4952372;29;20582;-88
2021/01/26 03:09:21;;;;;;;18.57;3.70;;;6.10;99.90;;;;;;4949553;29;20613;-86
2021/01/26 03:11:54;;;;;;;15.10;3.57;;;6.10;99.90;;;;;;4960593;28;20197;-80
2021/01/26 03:14:27;;;;;;;17.83;3.50;;;6.10;99.90;;;;;;4954869;28;20217;-86
2021/01/26 03:17:00;;;;;;;16.87;3.53;;;6.10;99.90;;;;;;4949998;29;20677;-87
2021/01/26 03:19:30;;;;;;;13.50;3.60;;;6.10;99.90;;;;;;4951722;28;20205;-81
2021/01/26 03:22:01;;;;;;;13.60;2.63;;;6.00;99.90;;;;;;4951277;29;20661;-88
2021/01/26 03:24:31;;;;;;;16.07;2.57;;;6.10;99.90;;;;;;4951286;29;20236;-88
2021/01/26 03:27:04;;;;;;;15.57;2.97;;;6.10;99.90;;;;;;4952862;28;20202;-87
2021/01/26 03:29:31;;;;;;;13.33;3.00;;;6.10;99.90;;;;;;4951491;28;20228;-83
2021/01/26 03:32:02;;;;;;;8.93;2.60;;;6.10;99.90;;;;;;4950694;28;20212;-86
2021/01/26 03:34:29;;;;;;;10.27;2.70;;;6.10;99.90;;;;;;4952495;29;20205;-86
2021/01/26 03:36:56;;;;;;;15.40;2.97;;;6.20;99.90;;;;;;4952139;29;20623;-88
2021/01/26 03:39:22;;;;;;;13.03;2.27;;;6.20;99.90;;;;;;4951458;29;20208;-83
2021/01/26 03:41:48;;;;;;;12.77;2.00;;;6.20;99.90;;;;;;4951525;28;20310;-87
2021/01/26 03:44:16;;;;;;;18.37;3.13;;;6.20;99.90;;;;;;4951450;29;20480;-87
2021/01/26 03:47:30;;;;;;;7.43;2.67;;;6.20;99.90;;;;;;4951798;28;20224;-86
2021/01/26 03:50:22;;;;;;;11.93;2.10;;;6.20;99.90;;;;;;4931046;29;20224;-88
2021/01/26 03:53:07;;;;;;;15.20;2.20;;;6.20;99.90;;;;;;4951777;29;20194;-89
2021/01/26 03:55:41;;;;;;;10.73;2.10;;;6.20;99.90;;;;;;4950480;29;20241;-79
2021/01/26 03:58:19;;;;;;;19.93;3.90;;;6.30;99.90;;;;;;4951194;29;20602;-89
2021/01/26 04:00:55;;;;;;;14.67;2.80;;;6.30;99.90;;;;;;4950433;29;20196;-90
2021/01/26 04:03:47;;;;;;;13.57;2.33;;;6.30;99.90;;;;;;4957785;28;20307;-81
2021/01/26 04:06:21;;;;;;;13.73;2.80;;;6.30;99.90;;;;;;4969461;28;20215;-89
2021/01/26 04:08:51;;;;;;;10.30;2.37;;;6.30;99.90;;;;;;4967529;28;20454;-88
2021/01/26 04:11:22;;;;;;;14.17;2.63;;;6.30;99.90;;;;;;4959382;28;20209;-84
2021/01/26 04:13:55;;;;;;;12.33;2.10;;;6.30;99.90;;;;;;4969339;28;20612;-89
2021/01/26 04:16:26;;;;;;;14.03;2.90;;;6.30;99.90;;;;;;4970843;28;20215;-87
2021/01/26 04:18:54;;;;;;;17.07;2.23;;;6.20;99.90;;;;;;4969380;28;20201;-81
2021/01/26 04:21:21;;;;;;;5.20;1.37;;;6.10;99.90;;;;;;4968729;28;20212;-81
2021/01/26 04:23:54;;;;;;;15.90;3.20;;;6.10;99.90;;;;;;4968517;28;20224;-87
2021/01/26 04:26:21;;;;;;;9.60;1.50;;;6.00;99.90;;;;;;4969809;28;20201;-87
2021/01/26 04:28:48;;;;;;;5.50;1.27;;;5.90;99.90;;;;;;4969598;28;20204;-80
2021/01/26 04:31:16;;;;;;;10.50;1.80;;;5.90;99.90;;;;;;4954476;28;20213;-83
2021/01/26 04:33:44;;;;;;;7.73;1.63;;;5.80;99.90;;;;;;4950188;29;20213;-88
2021/01/26 04:36:12;;;;;;;11.47;2.33;;;5.80;99.90;;;;;;4951023;29;20240;-87
2021/01/26 04:38:38;;;;;;;9.93;3.00;;;5.80;99.90;;;;;;4952510;28;20587;-80
2021/01/26 04:41:10;;;;;;;4.13;1.40;;;5.80;99.90;;;;;;4953329;29;20252;-88
2021/01/26 04:43:43;;;;;;;8.47;2.17;;;5.80;99.90;;;;;;4954599;29;20229;-88
2021/01/26 04:46:17;;;;;;;4.57;1.63;;;5.80;99.90;;;;;;4964950;28;20931;-82
2021/01/26 04:48:51;;;;;;;8.17;1.90;;;5.90;99.90;;;;;;4971670;28;20230;-81
2021/01/26 04:51:28;;;;;;;7.87;1.30;;;5.90;99.90;;;;;;4973726;28;20196;-90
2021/01/26 04:54:09;;;;;;;14.53;1.60;;;5.80;99.90;;;;;;4970175;28;20201;-89
2021/01/26 04:56:45;;;;;;;6.47;1.60;;;5.80;99.90;;;;;;4952744;29;20228;-79
2021/01/26 04:59:43;;;;;;;6.37;1.33;;;5.70;99.90;;;;;;4953504;29;20202;-89
2021/01/26 05:02:28;;;;;;;8.83;1.40;;;5.70;99.90;;;;;;4920202;28;20555;-87
2021/01/26 05:05:01;;;;;;;4.63;1.90;;;5.60;99.90;;;;;;4952492;29;20304;-80
2021/01/26 05:07:30;;;;;;;6.60;1.83;;;5.60;99.90;;;;;;4954504;29;20208;-88
2021/01/26 05:10:02;;;;;;;9.90;1.77;;;5.50;99.90;;;;;;4953787;28;20211;-88
2021/01/26 05:12:35;;;;;;;13.23;2.83;;;5.50;99.90;;;;;;4970396;28;20263;-82
2021/01/26 05:15:04;;;;;;;10.30;2.13;;;5.50;99.90;;;;;;4973539;28;20216;-88
2021/01/26 05:17:38;;;;;;;7.20;1.70;;;5.60;99.90;;;;;;4973218;28;20209;-90
2021/01/26 05:20:14;;;;;;;11.57;2.00;;;5.60;99.90;;;;;;4971659;28;20213;-85
2021/01/26 05:22:49;;;;;;;9.37;1.83;;;5.60;99.90;;;;;;4952599;29;20229;-87
2021/01/26 05:25:18;;;;;;;10.63;2.30;;;5.60;99.90;;;;;;4953946;29;20201;-91
2021/01/26 05:27:44;;;;;;;18.43;3.00;;;5.60;99.90;;;;;;4952668;29;20202;-80
2021/01/26 05:30:17;;;;;;;26.13;2.90;;;5.60;99.90;;;;;;4953344;28;20264;-84
2021/01/26 05:32:46;;;;;;;10.23;2.13;;;5.60;99.90;;;;;;4952977;29;20200;-83
2021/01/26 05:35:15;;;;;;;7.17;1.43;;;5.60;99.90;;;;;;4953373;29;20206;-88
2021/01/26 05:37:42;;;;;;;8.57;1.40;;;5.60;99.90;;;;;;4952432;28;20212;-86
2021/01/26 05:40:16;;;;;;;11.70;1.27;;;5.60;99.90;;;;;;4952303;29;20224;-86
2021/01/26 05:42:44;;;;;;;7.03;1.70;;;5.50;99.90;;;;;;4952867;29;20224;-89
2021/01/26 05:45:19;;;;;;;8.57;1.67;;;5.50;99.90;;;;;;4952871;29;20209;-87
2021/01/26 05:47:46;;;;;;;5.60;1.50;;;5.50;99.90;;;;;;4971484;28;20212;-85
2021/01/26 05:50:24;;;;;;;5.93;1.43;;;5.50;99.90;;;;;;4968752;28;20461;-84
2021/01/26 05:52:51;;;;;;;7.77;1.70;;;5.50;99.90;;;;;;4964165;28;20276;-89
2021/01/26 05:55:21;;;;;;;4.40;1.43;;;5.50;99.90;;;;;;4951612;29;20288;-90
2021/01/26 05:57:49;;;;;;;6.87;1.20;;;5.50;99.90;;;;;;4948635;28;20225;-89
2021/01/26 06:00:22;;;;;;;5.23;1.17;;;5.50;99.90;;;;;;4951427;29;20224;-89
2021/01/26 06:03:04;;;;;;;3.37;1.10;;;5.60;99.90;;;;;;4950337;28;20225;-89
2021/01/26 06:05:32;;;;;;;5.27;1.90;;;5.60;99.90;;;;;;4948073;29;20236;-89
2021/01/26 06:08:07;;;;;;;1.57;1.17;;;5.60;99.90;;;;;;4948464;29;20599;-88
2021/01/26 06:10:34;;;;;;;6.07;1.47;;;5.60;99.90;;;;;;4949934;29;20196;-89
2021/01/26 06:13:02;;;;;;;8.43;1.27;;;5.60;99.90;;;;;;4950592;28;20294;-90
2021/01/26 06:15:31;;;;;;;6.50;1.13;;;5.60;99.90;;;;;;4950630;29;20571;-88
2021/01/26 06:18:13;;;;;;;9.23;1.63;;;5.50;99.90;;;;;;4951392;28;20213;-89
2021/01/26 06:20:41;;;;;;;9.50;1.90;;;5.50;99.90;;;;;;4948403;29;20691;-90
2021/01/26 06:23:19;;;;;;;9.63;1.37;;;5.50;99.90;;;;;;4949112;29;20252;-86
2021/01/26 06:25:51;;;;;;;7.00;1.80;;;5.50;99.90;;;;;;4948715;28;20661;-89
2021/01/26 06:28:46;;;;;;;8.20;1.33;;;5.40;99.90;;;;;;4948886;29;20347;-86
2021/01/26 06:31:27;;;;;;;2.57;0.77;;;5.40;99.90;;;;;;4950767;29;20232;-85
2021/01/26 06:34:16;;;;;;;7.83;1.10;;;5.30;99.90;;;;;;4971095;28;20286;-90
2021/01/26 06:37:15;;;;;;;7.50;2.13;;;5.20;99.90;;;;;;4972211;28;20220;-89
2021/01/26 06:39:57;;;;;;;9.70;1.90;;;5.10;99.90;;;;;;4969647;28;20200;-86
2021/01/26 06:42:37;;;;;;;6.00;1.10;;;5.10;99.90;;;;;;4972362;28;20213;-91
2021/01/26 06:45:14;;;;;;;9.83;1.43;;;5.00;99.90;;;;;;4972539;28;20599;-87
2021/01/26 06:48:15;;;;;;;7.93;1.67;;;4.90;99.90;;;;;;4970999;28;20193;-90
2021/01/26 06:51:15;;;;;;;9.93;1.70;;;4.80;99.90;;;;;;4961011;28;20209;-91
2021/01/26 06:53:52;;;;;;;9.13;1.67;;;4.70;99.90;;;;;;4952755;29;20201;-79
2021/01/26 06:56:37;;;;;;;13.73;2.33;;;4.80;99.90;;;;;;4953051;29;20243;-89
2021/01/26 06:59:19;;;;;;;10.37;2.50;;;4.90;99.90;;;;;;4953472;29;20202;-91
2021/01/26 07:02:07;;;;;;;8.50;2.13;;;5.00;99.90;;;;;;4951563;28;20206;-82
2021/01/26 07:05:02;;;;;;;8.73;2.00;;;5.10;99.90;;;;;;4953499;29;20194;-91
2021/01/26 07:07:56;;;;;;;10.40;2.20;;;5.20;99.90;;;;;;4952850;28;20220;-84
2021/01/26 07:10:42;;;;;;;6.87;2.20;;;5.30;99.90;;;;;;4950545;28;20867;-89
2021/01/26 07:13:15;;;;;;;8.83;1.47;;;5.40;99.90;;;;;;4949732;28;20212;-91
2021/01/26 07:16:18;;;;;;;9.33;2.47;;;5.30;99.90;;;;;;4967379;28;20209;-91
2021/01/26 07:19:11;;;;;;;4.90;1.50;;;5.20;99.90;;;;;;4935194;29;20511;-88
2021/01/26 07:21:55;;;;;;;7.17;1.53;;;5.20;99.90;;;;;;4945207;29;20558;-90
2021/01/26 07:24:27;;;;;;;5.27;1.20;;;5.20;99.90;;;;;;4952452;29;20190;-89
2021/01/26 07:27:26;;;;;;;12.63;1.90;;;5.20;99.90;;;;;;4950882;28;20217;-89
2021/01/26 07:30:02;;;;;;;10.23;1.70;;;5.20;99.90;;;;;;4963006;28;20236;-89
2021/01/26 07:32:37;;;;;;;8.27;1.60;;;5.20;99.90;;;;;;4971489;28;20496;-90
2021/01/26 07:35:12;;;;;;;7.03;2.03;;;5.20;99.90;;;;;;4970761;28;20668;-84
2021/01/26 07:37:46;;;;;;;7.57;1.50;;;5.20;99.90;;;;;;4954572;28;20216;-90
2021/01/26 07:40:22;;;;;;;5.37;1.30;;;5.20;99.90;;;;;;4950856;29;20363;-86
2021/01/26 07:42:58;;;;;;;8.07;1.40;;;5.20;99.90;;;;;;4947505;29;20850;-90
2021/01/26 07:45:29;;;;;;;4.13;1.10;;;5.20;99.90;;;;;;4947976;28;20205;-84
2021/01/26 07:48:03;;;;;;;4.17;1.07;;;5.20;99.90;;;;;;4950833;29;20201;-85
2021/01/26 07:50:34;;;;;;;6.33;1.13;;;5.10;99.90;;;;;;4946837;29;20764;-85
2021/01/26 07:53:05;;;;;;;8.37;2.20;;;5.10;99.90;;;;;;4946532;28;20211;-83
2021/01/26 07:55:34;;;;;;;6.77;1.47;;;5.10;99.90;;;;;;4947840;29;20228;-79
2021/01/26 07:58:05;;;;;;;10.20;1.60;;;5.00;99.90;;;;;;4946881;28;20600;-80
2021/01/26 08:00:36;;;;;;;7.10;1.90;;;4.90;99.90;;;;;;4946317;29;20249;-79
2021/01/26 08:03:03;;;;;;;10.73;1.60;;;4.90;99.90;;;;;;4947065;29;20584;-80
2021/01/26 08:05:43;;;;;;;6.30;1.37;;;5.00;99.90;;;;;;4946529;28;20618;-86
2021/01/26 08:08:16;;;;;;;8.67;1.87;;;5.00;99.90;;;;;;4950552;28;20204;-81
2021/01/26 08:10:43;;;;;;;5.17;1.50;;;5.10;99.90;;;;;;4953006;28;20692;-80
2021/01/26 08:13:11;;;;;;;4.20;1.10;;;5.10;99.90;;;;;;4968251;28;20664;-86
2021/01/26 08:15:40;;;;;;;5.63;1.20;;;5.10;99.90;;;;;;4952933;28;20216;-85
2021/01/26 08:18:19;;;;;;;3.53;1.30;;;5.20;99.90;;;;;;4950346;29;20292;-87
2021/01/26 08:20:45;;;;;;;7.83;1.43;;;5.20;99.90;;;;;;4948017;29;20212;-83
2021/01/26 08:23:25;;;;;;;4.53;1.77;;;5.20;99.90;;;;;;4950285;28;20251;-86
2021/01/26 08:25:55;;;;;;;4.30;1.30;;;5.20;99.90;;;;;;4950303;29;20215;-85
2021/01/26 08:46:00;;;;;;;10.80;1.67;;;5.60;99.90;;;;;;4709232;30;20217;-87
2021/01/26 08:48:30;;;;;;;7.93;1.90;;;5.70;99.90;;;;;;4785432;29;20219;-80
2021/01/26 08:51:24;;;;;;;9.40;1.70;;;5.70;99.90;;;;;;4871750;29;20971;-87
2021/01/26 08:53:52;;;;;;;3.60;1.03;;;5.80;99.90;;;;;;4869352;29;20215;-85
2021/01/26 08:56:39;;;;;;;7.70;1.03;;;5.80;99.90;;;;;;4872195;29;20812;-79
2021/01/26 08:59:13;;;;;;;8.67;1.80;;;6.00;99.90;;;;;;4867190;29;20239;-87
2021/01/26 09:01:53;;;;;;;3.87;1.50;;;6.00;99.90;;;;;;4854390;29;20213;-84
2021/01/26 09:04:41;;;;;;;6.80;1.80;;;6.00;99.90;;;;;;4854666;29;20208;-83
2021/01/26 09:07:09;;;;;;;17.97;4.10;;;6.10;99.90;;;;;;4857289;29;20220;-86
2021/01/26 09:09:48;;;;;;;8.07;2.10;;;6.10;99.90;;;;;;4872393;29;20205;-88
2021/01/26 09:12:22;;;;;;;8.67;1.57;;;6.20;99.90;;;;;;4882275;29;20277;-87
2021/01/26 09:14:51;;;;;;;9.17;1.30;;;6.20;99.90;;;;;;4909672;29;20206;-86
2021/01/26 09:17:26;;;;;;;8.70;1.57;;;6.20;99.90;;;;;;4909656;29;20246;-84
2021/01/26 09:19:56;;;;;;;7.07;1.30;;;6.30;99.90;;;;;;4909878;29;20206;-85
2021/01/26 09:22:25;;;;;;;7.07;1.20;;;6.30;99.90;;;;;;4910057;29;20234;-89
2021/01/26 09:24:58;;;;;;;5.17;1.50;;;6.30;99.90;;;;;;4912117;29;20211;-89
2021/01/26 09:27:27;;;;;;;5.60;0.90;;;6.30;99.90;;;;;;4912617;29;20647;-87
2021/01/26 09:30:07;;;;;;;9.33;1.50;;;6.30;99.90;;;;;;4906670;29;20227;-83
2021/01/26 09:32:35;;;;;;;12.10;1.63;;;6.40;99.90;;;;;;4892534;29;20210;-83
2021/01/26 09:35:20;;;;;;;5.33;1.30;;;6.40;99.90;;;;;;4890209;29;20223;-82
2021/01/26 09:37:47;;;;;;;7.60;1.40;;;6.40;99.90;;;;;;4892109;29;20626;-83
2021/01/26 09:40:15;;;;;;;7.60;1.77;;;6.50;99.90;;;;;;4892905;29;20204;-83
2021/01/26 09:42:41;;;;;;;4.83;1.03;;;6.60;99.90;;;;;;4900639;29;20230;-84
2021/01/26 09:45:10;;;;;;;3.73;1.27;;;6.60;99.90;;;;;;4911033;29;20619;-79
2021/01/26 09:47:37;;;;;;;5.37;1.00;;;6.60;99.90;;;;;;4909366;29;20206;-82
2021/01/26 09:50:08;;;;;;;4.60;1.27;;;6.60;99.90;;;;;;4893187;29;20222;-79
2021/01/26 09:52:35;;;;;;;4.27;1.00;;;6.60;99.90;;;;;;4894283;29;20226;-81
2021/01/26 09:55:05;;;;;;;9.37;1.40;;;6.50;99.90;;;;;;4894302;29;20436;-83
2021/01/26 09:57:32;;;;;;;3.33;1.03;;;6.50;99.90;;;;;;4910911;29;20235;-82
2021/01/26 09:59:59;;;;;;;3.43;1.50;;;6.60;99.90;;;;;;4910797;29;20214;-81
2021/01/26 10:02:26;;;;;;;3.13;1.00;;;6.60;99.90;;;;;;4910614;29;20247;-83
2021/01/26 10:04:54;;;;;;;3.27;1.10;;;6.60;99.90;;;;;;4909974;29;20210;-80
2021/01/26 10:07:22;;;;;;;6.10;1.33;;;6.60;99.90;;;;;;4911292;29;20337;-84
2021/01/26 10:09:49;;;;;;;4.67;1.27;;;6.70;99.90;;;;;;4912319;29;20289;-84
2021/01/26 10:12:26;;;;;;;4.80;1.30;;;6.70;99.90;;;;;;4906232;29;20238;-84
2021/01/26 10:15:30;;;;;;;4.17;1.07;;;6.70;99.90;;;;;;4892898;29;20199;-84
2021/01/26 10:18:05;;;;;;;5.50;1.57;;;6.70;99.90;;;;;;4893675;29;20210;-83
2021/01/26 10:20:37;;;;;;;8.43;1.43;;;6.80;99.90;;;;;;4912310;29;20198;-84
2021/01/26 10:23:06;;;;;;;4.63;1.20;;;6.90;99.90;;;;;;4911268;29;20540;-85
2021/01/26 10:25:33;;;;;;;5.50;1.03;;;6.90;99.90;;;;;;4910244;29;20248;-84
2021/01/26 10:28:12;;;;;;;7.20;1.37;;;7.00;99.90;;;;;;4893501;29;20207;-84
2021/01/26 10:30:44;;;;;;;5.13;0.90;;;7.00;99.90;;;;;;4887682;29;20235;-82
2021/01/26 10:33:11;;;;;;;5.90;1.43;;;7.00;99.90;;;;;;4885813;29;20203;-82
2021/01/26 10:35:39;;;;;;;4.53;1.00;;;6.90;99.90;;;;;;4889735;29;20219;-82
2021/01/26 10:38:27;;;;;;;5.50;1.10;;;6.90;99.90;;;;;;4892134;29;20624;-83
2021/01/26 10:41:10;;;;;;;5.37;1.13;;;6.90;99.90;;;;;;4968656;28;20220;-82
2021/01/26 10:43:38;;;;;;;8.47;1.30;;;6.90;99.90;;;;;;4966838;28;20360;-82
2021/01/26 10:46:04;;;;;;;10.80;1.87;;;6.90;99.90;;;;;;4970235;28;20201;-83
2021/01/26 10:48:32;;;;;;;3.27;0.80;;;7.00;99.90;;;;;;4950867;29;20244;-83
2021/01/26 10:51:26;;;;;;;8.33;1.63;;;7.10;99.90;;;;;;4946136;29;20212;-83
2021/01/26 10:53:52;;;;;;;2.73;1.00;;;7.20;99.90;;;;;;4945691;29;20495;-82
2021/01/26 10:56:19;;;;;;;5.03;1.20;;;7.30;99.90;;;;;;4945732;28;20241;-81
2021/01/26 10:58:47;;;;;;;9.03;1.10;;;7.30;99.90;;;;;;4948863;29;20206;-83
2021/01/26 11:01:17;;;;;;;4.13;1.13;;;7.30;99.90;;;;;;4949039;29;20217;-82
2021/01/26 11:03:43;;;;;;;8.97;1.57;;;7.30;99.90;;;;;;4949029;29;20229;-81
2021/01/26 11:06:11;;;;;;;5.13;1.50;;;7.30;99.90;;;;;;4946910;28;20221;-81
2021/01/26 11:08:38;;;;;;;9.20;1.83;;;7.30;99.90;;;;;;4948372;28;20275;-83
2021/01/26 11:11:04;;;;;;;3.70;1.10;;;7.20;99.90;;;;;;4952428;29;20205;-84
2021/01/26 11:13:31;;;;;;;7.03;1.37;;;7.20;99.90;;;;;;4951503;29;20256;-78
2021/01/26 11:15:57;;;;;;;9.97;1.53;;;7.10;99.90;;;;;;4947008;28;20669;-83
2021/01/26 11:18:24;;;;;;;7.97;2.03;;;7.10;99.90;;;;;;4950328;29;20197;-84
2021/01/26 11:20:50;;;;;;;7.93;1.50;;;7.10;99.90;;;;;;4951059;28;20828;-80
2021/01/26 11:23:16;;;;;;;8.47;1.37;;;7.10;99.90;;;;;;4948229;29;20221;-80
2021/01/26 11:25:43;;;;;;;13.83;1.93;;;7.10;99.90;;;;;;4951462;28;20213;-84
2021/01/26 11:28:10;;;;;;;8.30;1.50;;;7.10;99.90;;;;;;4952252;29;20233;-89
2021/01/26 11:30:37;;;;;;;8.50;1.73;;;7.10;99.90;;;;;;4951461;28;20236;-86
2021/01/26 11:33:04;;;;;;;7.63;1.97;;;7.10;99.90;;;;;;4948449;28;20205;-82
2021/01/26 11:35:31;;;;;;;6.67;1.37;;;7.10;99.90;;;;;;4948763;28;20300;-85
2021/01/26 11:37:57;;;;;;;6.10;1.60;;;7.20;99.90;;;;;;4951665;28;20212;-86
2021/01/26 11:40:24;;;;;;;12.43;3.33;;;7.20;99.90;;;;;;4949960;29;20666;-83
2021/01/26 11:42:51;;;;;;;12.07;2.00;;;7.30;99.90;;;;;;4967714;28;20228;-85
2021/01/26 11:45:20;;;;;;;5.50;1.90;;;7.40;99.90;;;;;;4970426;28;20842;-86
2021/01/26 11:47:47;;;;;;;5.83;1.77;;;7.50;99.90;;;;;;4969097;28;20193;-84
2021/01/26 11:50:15;;;;;;;7.60;2.03;;;7.50;99.90;;;;;;4967361;28;20424;-81
2021/01/26 11:52:42;;;;;;;4.27;1.17;;;7.50;99.90;;;;;;4951712;29;20198;-86
2021/01/26 11:55:10;;;;;;;2.37;0.80;;;7.50;99.90;;;;;;4952229;28;20240;-85
2021/01/26 11:57:37;;;;;;;3.93;0.90;;;7.50;99.90;;;;;;4954894;28;20295;-85
2021/01/26 12:00:07;;;;;;;4.93;1.30;;;7.40;99.90;;;;;;4970647;28;20581;-85
2021/01/26 12:02:33;;;;;;;3.33;0.90;;;7.40;99.90;;;;;;4970809;28;20223;-85
2021/01/26 12:04:59;;;;;;;7.00;1.80;;;7.40;99.90;;;;;;4970517;28;20220;-86
2021/01/26 12:07:26;;;;;;;10.47;2.30;;;7.40;99.90;;;;;;4971259;28;20217;-82
2021/01/26 12:09:52;;;;;;;7.03;2.20;;;7.40;99.90;;;;;;4967109;28;20209;-84
2021/01/26 12:12:18;;;;;;;7.70;2.20;;;7.30;99.90;;;;;;4948308;29;20216;-80
2021/01/26 12:14:45;;;;;;;11.33;1.93;;;7.30;99.90;;;;;;4945451;28;20511;-86
2021/01/26 12:17:12;;;;;;;9.27;2.40;;;7.30;99.90;;;;;;4943948;28;20208;-86
2021/01/26 12:19:38;;;;;;;9.73;2.63;;;7.40;99.90;;;;;;4945360;29;20209;-85
2021/01/26 12:22:04;;;;;;;10.20;3.03;;;7.30;99.90;;;;;;4947270;29;20217;-78
2021/01/26 12:24:31;;;;;;;7.00;2.43;;;7.30;99.90;;;;;;4950101;29;20228;-85
2021/01/26 12:26:57;;;;;;;10.43;2.00;;;7.30;99.90;;;;;;4948558;28;20224;-85
2021/01/26 12:29:23;;;;;;;9.93;2.43;;;7.20;99.90;;;;;;4945685;29;20415;-82
2021/01/26 12:31:50;;;;;;;10.90;3.20;;;7.30;99.90;;;;;;4945828;28;20217;-85
2021/01/26 12:34:17;;;;;;;9.20;2.33;;;7.20;99.90;;;;;;4967706;28;20217;-84
2021/01/26 12:36:44;;;;;;;6.57;2.37;;;7.20;99.90;;;;;;4966300;28;20264;-84
2021/01/26 12:39:10;;;;;;;14.07;2.47;;;7.10;99.90;;;;;;4963521;28;20220;-85
2021/01/26 12:41:37;;;;;;;9.43;1.90;;;7.20;99.90;;;;;;4946992;29;20209;-82
2021/01/26 12:44:06;;;;;;;13.00;2.00;;;7.10;99.90;;;;;;4947762;28;20227;-80
2021/01/26 12:46:33;;;;;;;7.67;2.07;;;7.10;99.90;;;;;;4945385;29;20213;-82
2021/01/26 12:48:59;;;;;;;5.07;1.77;;;7.10;99.90;;;;;;4944345;29;20209;-81
2021/01/26 12:51:27;;;;;;;9.50;2.00;;;7.10;99.90;;;;;;4945039;28;20213;-79
2021/01/26 12:53:53;;;;;;;6.17;1.97;;;7.00;99.90;;;;;;4945470;29;20205;-82
2021/01/26 12:56:19;;;;;;;8.40;2.07;;;7.10;99.90;;;;;;4944917;29;20591;-80
2021/01/26 12:58:45;;;;;;;6.17;1.73;;;7.10;99.90;;;;;;4946040;28;20224;-78
2021/01/26 13:01:12;;;;;;;8.73;2.60;;;7.10;99.90;;;;;;4947398;28;20213;-80
2021/01/26 13:03:39;;;;;;;13.20;2.37;;;7.20;99.90;;;;;;4946823;29;20520;-78
2021/01/26 13:06:05;;;;;;;7.17;1.60;;;7.10;99.90;;;;;;4947026;29;20201;-77
2021/01/26 13:08:32;;;;;;;10.73;2.97;;;7.10;99.90;;;;;;4946064;28;20209;-80
2021/01/26 13:10:59;;;;;;;7.40;1.97;;;7.10;99.90;;;;;;4953090;28;20209;-78
2021/01/26 13:13:25;;;;;;;9.80;2.87;;;7.10;99.90;;;;;;4955734;28;20213;-79
2021/01/26 13:15:51;;;;;;;12.30;2.27;;;7.10;99.90;;;;;;4948326;29;20205;-79
2021/01/26 13:18:18;;;;;;;6.27;2.10;;;7.10;99.90;;;;;;4947769;29;20232;-84
2021/01/26 13:20:44;;;;;;;6.67;2.43;;;7.10;99.90;;;;;;4949140;29;20430;-78
2021/01/26 13:23:12;;;;;;;7.60;2.77;;;7.10;99.90;;;;;;4949527;28;20221;-79
2021/01/26 13:25:40;;;;;;;9.80;2.30;;;7.20;99.90;;;;;;4949489;29;20201;-84
2021/01/26 13:28:06;;;;;;;6.03;2.30;;;7.20;99.90;;;;;;4949165;28;20217;-80
2021/01/26 13:30:33;;;;;;;5.47;2.23;;;7.20;99.90;;;;;;4947643;29;20225;-78
2021/01/26 13:32:59;;;;;;;11.53;2.30;;;7.30;99.90;;;;;;4947246;29;20967;-77
2021/01/26 13:35:30;;;;;;;12.57;2.30;;;7.30;99.90;;;;;;4949460;28;20209;-77
2021/01/26 13:37:57;;;;;;;8.17;1.90;;;7.30;99.90;;;;;;4966945;28;20204;-77